sensor_id;sensor_type;location;lat;lon;timestamp;temperature;humidity
18160;DHT22;9205;52.032;4.314;2024-03-23T00:55:47;7.90;99.90
18160;DHT22;9205;52.032;4.314;2024-03-23T00:58:13;8.00;99.90
18160;DHT22;9205;52.032;4.314;2024-03-23T01:00:41;7.80;99.90
18160;DHT22;9205;52.032;4.314;2024-03-23T01:03:07;7.70;99.90
18160;DHT22;9205;52.032;4.314;2024-03-23T01:05:34;7.80;99.90
18160;DHT22;9205;52.032;4.314;2024-03-23T01:08:00;7.70;99.90
18160;DHT22;9205;52.032;4.314;2024-03-23T01:10:27;7.70;99.90
18160;DHT22;9205;52.032;4.314;2024-03-23T01:12:55;7.60;99.90
18160;DHT22;9205;52.032;4.314;2024-03-23T01:15:22;7.70;99.90
18160;DHT22;9205;52.032;4.314;2024-03-23T01:17:48;7.70;99.90
18160;DHT22;9205;52.032;4.314;2024-03-23T01:20:15;7.70;99.90
18160;DHT22;9205;52.032;4.314;2024-03-23T01:22:42;7.60;99.90
18160;DHT22;9205;52.032;4.314;2024-03-23T01:25:09;7.70;99.90
18160;DHT22;9205;52.032;4.314;2024-03-23T01:27:36;7.60;99.90
18160;DHT22;9205;52.032;4.314;2024-03-23T01:30:06;7.40;99.90
18160;DHT22;9205;52.032;4.314;2024-03-23T01:32:33;7.50;99.90
18160;DHT22;9205;52.032;4.314;2024-03-23T01:35:00;7.50;99.90
18160;DHT22;9205;52.032;4.314;2024-03-23T01:37:26;7.40;99.90
18160;DHT22;9205;52.032;4.314;2024-03-23T01:39:54;7.50;99.90
18160;DHT22;9205;52.032;4.314;2024-03-23T01:42:20;7.40;99.90
18160;DHT22;9205;52.032;4.314;2024-03-23T01:44:48;7.60;99.90
18160;DHT22;9205;52.032;4.314;2024-03-23T01:47:15;7.50;1.00
18160;DHT22;9205;52.032;4.314;2024-03-23T01:49:43;7.60;1.00
18160;DHT22;9205;52.032;4.314;2024-03-23T01:52:11;7.50;1.00
18160;DHT22;9205;52.032;4.314;2024-03-23T01:54:39;7.60;1.00
18160;DHT22;9205;52.032;4.314;2024-03-23T01:57:06;7.50;1.00
18160;DHT22;9205;52.032;4.314;2024-03-23T01:59:33;7.60;1.00
18160;DHT22;9205;52.032;4.314;2024-03-23T02:02:00;7.50;1.00
18160;DHT22;9205;52.032;4.314;2024-03-23T02:04:30;7.50;99.90
18160;DHT22;9205;52.032;4.314;2024-03-23T02:06:56;7.60;99.90
18160;DHT22;9205;52.032;4.314;2024-03-23T02:09:24;7.60;1.00
18160;DHT22;9205;52.032;4.314;2024-03-23T02:11:50;7.70;1.00
18160;DHT22;9205;52.032;4.314;2024-03-23T02:14:18;7.60;1.00
18160;DHT22;9205;52.032;4.314;2024-03-23T02:16:44;7.60;1.00
18160;DHT22;9205;52.032;4.314;2024-03-23T02:19:13;7.60;1.00
18160;DHT22;9205;52.032;4.314;2024-03-23T02:21:41;7.60;1.00
18160;DHT22;9205;52.032;4.314;2024-03-23T02:24:10;7.60;1.00
18160;DHT22;9205;52.032;4.314;2024-03-23T02:26:36;7.50;1.00
18160;DHT22;9205;52.032;4.314;2024-03-23T02:29:03;7.50;99.90
18160;DHT22;9205;52.032;4.314;2024-03-23T02:31:29;7.60;99.90
18160;DHT22;9205;52.032;4.314;2024-03-23T02:33:56;7.60;99.90
18160;DHT22;9205;52.032;4.314;2024-03-23T02:36:22;7.40;99.90
18160;DHT22;9205;52.032;4.314;2024-03-23T02:38:50;7.50;99.90
18160;DHT22;9205;52.032;4.314;2024-03-23T02:41:17;7.50;99.90
18160;DHT22;9205;52.032;4.314;2024-03-23T02:43:49;7.40;99.90
18160;DHT22;9205;52.032;4.314;2024-03-23T02:46:17;7.50;99.90
18160;DHT22;9205;52.032;4.314;2024-03-23T02:48:45;7.50;99.90
18160;DHT22;9205;52.032;4.314;2024-03-23T02:51:14;7.50;99.90
18160;DHT22;9205;52.032;4.314;2024-03-23T02:53:41;7.30;54.00
18160;DHT22;9205;52.032;4.314;2024-03-23T02:56:07;7.40;1.00
18160;DHT22;9205;52.032;4.314;2024-03-23T02:58:36;7.30;1.00
18160;DHT22;9205;52.032;4.314;2024-03-23T03:01:02;7.40;1.00
18160;DHT22;9205;52.032;4.314;2024-03-23T03:03:29;7.40;1.00
18160;DHT22;9205;52.032;4.314;2024-03-23T03:05:56;7.40;1.00
18160;DHT22;9205;52.032;4.314;2024-03-23T03:08:23;7.40;1.00
18160;DHT22;9205;52.032;4.314;2024-03-23T03:10:50;7.40;1.00
18160;DHT22;9205;52.032;4.314;2024-03-23T03:13:17;7.50;99.90
18160;DHT22;9205;52.032;4.314;2024-03-23T03:15:45;7.50;57.60
18160;DHT22;9205;52.032;4.314;2024-03-23T03:18:12;7.60;1.00
18160;DHT22;9205;52.032;4.314;2024-03-23T03:20:38;7.60;1.00
18160;DHT22;9205;52.032;4.314;2024-03-23T03:23:06;7.60;1.00
18160;DHT22;9205;52.032;4.314;2024-03-23T03:25:33;7.50;1.00
18160;DHT22;9205;52.032;4.314;2024-03-23T03:28:00;7.40;1.00
18160;DHT22;9205;52.032;4.314;2024-03-23T03:30:27;7.50;1.00
18160;DHT22;9205;52.032;4.314;2024-03-23T03:32:56;7.50;1.00
18160;DHT22;9205;52.032;4.314;2024-03-23T03:35:22;7.40;1.00
18160;DHT22;9205;52.032;4.314;2024-03-23T03:37:49;7.40;1.00
18160;DHT22;9205;52.032;4.314;2024-03-23T03:40:15;7.40;1.00
18160;DHT22;9205;52.032;4.314;2024-03-23T03:42:42;7.40;1.00
18160;DHT22;9205;52.032;4.314;2024-03-23T03:45:09;7.40;1.00
18160;DHT22;9205;52.032;4.314;2024-03-23T03:47:36;7.40;1.00
18160;DHT22;9205;52.032;4.314;2024-03-23T03:50:04;7.40;1.00
18160;DHT22;9205;52.032;4.314;2024-03-23T03:52:32;7.30;1.00
18160;DHT22;9205;52.032;4.314;2024-03-23T03:55:02;7.30;1.00
18160;DHT22;9205;52.032;4.314;2024-03-23T03:57:29;7.40;1.00
18160;DHT22;9205;52.032;4.314;2024-03-23T03:59:56;7.40;1.00
18160;DHT22;9205;52.032;4.314;2024-03-23T04:02:22;7.30;1.00
18160;DHT22;9205;52.032;4.314;2024-03-23T04:04:49;7.30;1.00
18160;DHT22;9205;52.032;4.314;2024-03-23T04:07:17;7.30;1.00
18160;DHT22;9205;52.032;4.314;2024-03-23T04:09:44;7.30;1.00
18160;DHT22;9205;52.032;4.314;2024-03-23T04:12:10;7.30;1.00
18160;DHT22;9205;52.032;4.314;2024-03-23T04:14:37;7.30;1.00
18160;DHT22;9205;52.032;4.314;2024-03-23T04:17:03;7.30;1.00
18160;DHT22;9205;52.032;4.314;2024-03-23T04:19:31;7.20;1.00
18160;DHT22;9205;52.032;4.314;2024-03-23T04:21:57;7.20;1.00
18160;DHT22;9205;52.032;4.314;2024-03-23T04:24:25;7.10;1.00
18160;DHT22;9205;52.032;4.314;2024-03-23T04:26:52;7.20;1.00
18160;DHT22;9205;52.032;4.314;2024-03-23T04:29:19;7.10;1.00
18160;DHT22;9205;52.032;4.314;2024-03-23T04:31:45;7.20;1.00
18160;DHT22;9205;52.032;4.314;2024-03-23T04:34:13;7.20;1.00
18160;DHT22;9205;52.032;4.314;2024-03-23T04:36:39;7.20;1.00
18160;DHT22;9205;52.032;4.314;2024-03-23T04:39:07;7.20;1.00
18160;DHT22;9205;52.032;4.314;2024-03-23T04:41:36;7.20;90.90
18160;DHT22;9205;52.032;4.314;2024-03-23T04:44:03;7.30;99.90
18160;DHT22;9205;52.032;4.314;2024-03-23T04:46:31;7.30;99.90
18160;DHT22;9205;52.032;4.314;2024-03-23T04:48:58;7.30;99.90
18160;DHT22;9205;52.032;4.314;2024-03-23T04:51:25;7.30;99.90
18160;DHT22;9205;52.032;4.314;2024-03-23T04:53:53;7.40;99.90
18160;DHT22;9205;52.032;4.314;2024-03-23T04:56:19;7.40;99.90
18160;DHT22;9205;52.032;4.314;2024-03-23T04:58:47;7.50;99.90
18160;DHT22;9205;52.032;4.314;2024-03-23T05:01:14;7.40;99.90
18160;DHT22;9205;52.032;4.314;2024-03-23T05:03:41;7.40;99.90
18160;DHT22;9205;52.032;4.314;2024-03-23T05:06:07;7.40;88.30
18160;DHT22;9205;52.032;4.314;2024-03-23T05:08:34;7.40;75.10
18160;DHT22;9205;52.032;4.314;2024-03-23T05:11:00;7.40;48.70
18160;DHT22;9205;52.032;4.314;2024-03-23T05:13:28;7.40;28.50
18160;DHT22;9205;52.032;4.314;2024-03-23T05:15:56;7.30;1.00
18160;DHT22;9205;52.032;4.314;2024-03-23T05:18:23;7.40;1.00
18160;DHT22;9205;52.032;4.314;2024-03-23T05:20:55;7.30;1.00
18160;DHT22;9205;52.032;4.314;2024-03-23T05:23:24;7.40;1.00
18160;DHT22;9205;52.032;4.314;2024-03-23T05:25:51;7.30;1.00
18160;DHT22;9205;52.032;4.314;2024-03-23T05:28:18;7.30;1.00
18160;DHT22;9205;52.032;4.314;2024-03-23T05:30:50;7.20;1.00
18160;DHT22;9205;52.032;4.314;2024-03-23T05:33:20;7.20;1.00
18160;DHT22;9205;52.032;4.314;2024-03-23T05:35:47;7.20;1.00
18160;DHT22;9205;52.032;4.314;2024-03-23T05:38:14;7.30;1.00
18160;DHT22;9205;52.032;4.314;2024-03-23T05:40:40;7.20;1.00
18160;DHT22;9205;52.032;4.314;2024-03-23T05:43:08;7.20;1.00
18160;DHT22;9205;52.032;4.314;2024-03-23T05:45:34;7.20;1.00
18160;DHT22;9205;52.032;4.314;2024-03-23T05:48:02;7.10;1.00
18160;DHT22;9205;52.032;4.314;2024-03-23T05:50:29;7.20;1.00
18160;DHT22;9205;52.032;4.314;2024-03-23T05:52:57;7.10;1.00
18160;DHT22;9205;52.032;4.314;2024-03-23T05:55:23;7.10;1.00
18160;DHT22;9205;52.032;4.314;2024-03-23T05:57:50;7.00;1.00
18160;DHT22;9205;52.032;4.314;2024-03-23T06:00:16;7.10;1.00
18160;DHT22;9205;52.032;4.314;2024-03-23T06:02:44;7.00;1.00
18160;DHT22;9205;52.032;4.314;2024-03-23T06:05:10;7.10;1.00
18160;DHT22;9205;52.032;4.314;2024-03-23T06:07:39;7.10;1.00
18160;DHT22;9205;52.032;4.314;2024-03-23T06:10:13;7.10;1.00
18160;DHT22;9205;52.032;4.314;2024-03-23T06:12:41;7.00;1.00
18160;DHT22;9205;52.032;4.314;2024-03-23T06:15:09;7.00;1.00
18160;DHT22;9205;52.032;4.314;2024-03-23T06:17:36;7.10;1.00
18160;DHT22;9205;52.032;4.314;2024-03-23T06:20:04;7.10;1.00
18160;DHT22;9205;52.032;4.314;2024-03-23T06:22:32;7.10;1.00
18160;DHT22;9205;52.032;4.314;2024-03-23T06:25:00;7.00;1.00
18160;DHT22;9205;52.032;4.314;2024-03-23T06:27:26;7.00;1.00
18160;DHT22;9205;52.032;4.314;2024-03-23T06:29:54;7.10;1.00
18160;DHT22;9205;52.032;4.314;2024-03-23T06:32:20;7.10;1.00
18160;DHT22;9205;52.032;4.314;2024-03-23T06:34:48;7.10;1.00
18160;DHT22;9205;52.032;4.314;2024-03-23T06:37:16;7.10;1.00
18160;DHT22;9205;52.032;4.314;2024-03-23T06:39:46;7.20;1.00
18160;DHT22;9205;52.032;4.314;2024-03-23T06:42:14;7.20;1.00
18160;DHT22;9205;52.032;4.314;2024-03-23T06:44:41;7.20;1.00
18160;DHT22;9205;52.032;4.314;2024-03-23T06:47:07;7.20;1.00
18160;DHT22;9205;52.032;4.314;2024-03-23T06:49:34;7.30;1.00
18160;DHT22;9205;52.032;4.314;2024-03-23T06:52:01;7.20;1.00
18160;DHT22;9205;52.032;4.314;2024-03-23T06:54:28;7.20;1.00
18160;DHT22;9205;52.032;4.314;2024-03-23T06:56:54;7.10;1.00
18160;DHT22;9205;52.032;4.314;2024-03-23T06:59:23;7.10;1.00
18160;DHT22;9205;52.032;4.314;2024-03-23T07:01:49;7.10;1.00
18160;DHT22;9205;52.032;4.314;2024-03-23T07:04:16;7.20;1.00
18160;DHT22;9205;52.032;4.314;2024-03-23T07:06:43;7.30;1.00
18160;DHT22;9205;52.032;4.314;2024-03-23T07:09:10;7.40;1.00
18160;DHT22;9205;52.032;4.314;2024-03-23T07:11:37;7.40;1.00
18160;DHT22;9205;52.032;4.314;2024-03-23T07:14:04;7.30;1.00
18160;DHT22;9205;52.032;4.314;2024-03-23T07:16:32;7.40;1.00
18160;DHT22;9205;52.032;4.314;2024-03-23T07:18:59;7.30;1.00
18160;DHT22;9205;52.032;4.314;2024-03-23T07:21:25;7.30;99.90
18160;DHT22;9205;52.032;4.314;2024-03-23T07:23:52;7.30;99.90
18160;DHT22;9205;52.032;4.314;2024-03-23T07:26:18;7.30;99.90
18160;DHT22;9205;52.032;4.314;2024-03-23T07:28:46;7.30;99.90
18160;DHT22;9205;52.032;4.314;2024-03-23T07:31:15;7.30;99.90
18160;DHT22;9205;52.032;4.314;2024-03-23T07:33:44;7.30;99.90
18160;DHT22;9205;52.032;4.314;2024-03-23T07:36:13;7.30;99.90
18160;DHT22;9205;52.032;4.314;2024-03-23T07:38:40;7.30;99.90
18160;DHT22;9205;52.032;4.314;2024-03-23T07:41:09;7.30;99.90
18160;DHT22;9205;52.032;4.314;2024-03-23T07:43:36;7.30;99.90
18160;DHT22;9205;52.032;4.314;2024-03-23T07:46:04;7.30;99.90
18160;DHT22;9205;52.032;4.314;2024-03-23T07:48:31;7.40;99.90
18160;DHT22;9205;52.032;4.314;2024-03-23T07:51:01;7.30;99.90
18160;DHT22;9205;52.032;4.314;2024-03-23T07:53:28;7.40;99.90
18160;DHT22;9205;52.032;4.314;2024-03-23T07:55:58;7.50;99.90
18160;DHT22;9205;52.032;4.314;2024-03-23T07:58:26;7.60;99.90
18160;DHT22;9205;52.032;4.314;2024-03-23T08:00:54;7.50;99.90
18160;DHT22;9205;52.032;4.314;2024-03-23T08:03:20;7.50;99.90
18160;DHT22;9205;52.032;4.314;2024-03-23T08:05:48;7.50;99.90
18160;DHT22;9205;52.032;4.314;2024-03-23T08:08:15;7.60;99.90
18160;DHT22;9205;52.032;4.314;2024-03-23T08:10:49;7.80;99.90
18160;DHT22;9205;52.032;4.314;2024-03-23T08:13:16;7.90;87.80
18160;DHT22;9205;52.032;4.314;2024-03-23T08:15:44;8.00;29.20
18160;DHT22;9205;52.032;4.314;2024-03-23T08:18:11;8.10;1.00
18160;DHT22;9205;52.032;4.314;2024-03-23T08:20:38;8.00;1.00
18160;DHT22;9205;52.032;4.314;2024-03-23T08:23:05;8.00;1.00
18160;DHT22;9205;52.032;4.314;2024-03-23T08:25:34;8.00;1.00
18160;DHT22;9205;52.032;4.314;2024-03-23T08:28:01;7.90;1.00
18160;DHT22;9205;52.032;4.314;2024-03-23T08:30:29;7.90;1.00
18160;DHT22;9205;52.032;4.314;2024-03-23T08:32:56;7.90;1.00
18160;DHT22;9205;52.032;4.314;2024-03-23T08:35:23;8.00;1.00
18160;DHT22;9205;52.032;4.314;2024-03-23T08:37:49;7.80;1.00
18160;DHT22;9205;52.032;4.314;2024-03-23T08:40:16;7.80;1.00
18160;DHT22;9205;52.032;4.314;2024-03-23T08:42:44;7.90;1.00
18160;DHT22;9205;52.032;4.314;2024-03-23T08:45:11;7.80;1.00
18160;DHT22;9205;52.032;4.314;2024-03-23T08:47:37;7.90;1.00
18160;DHT22;9205;52.032;4.314;2024-03-23T08:50:05;7.80;1.00
18160;DHT22;9205;52.032;4.314;2024-03-23T08:52:32;7.80;1.00
18160;DHT22;9205;52.032;4.314;2024-03-23T08:54:59;7.80;1.00
18160;DHT22;9205;52.032;4.314;2024-03-23T08:57:26;8.00;1.00
18160;DHT22;9205;52.032;4.314;2024-03-23T08:59:54;7.90;1.00
18160;DHT22;9205;52.032;4.314;2024-03-23T09:02:20;7.90;1.00
18160;DHT22;9205;52.032;4.314;2024-03-23T09:04:47;8.00;1.00
18160;DHT22;9205;52.032;4.314;2024-03-23T09:07:13;8.20;1.00
18160;DHT22;9205;52.032;4.314;2024-03-23T09:09:41;8.10;1.00
18160;DHT22;9205;52.032;4.314;2024-03-23T09:12:07;8.20;99.90
18160;DHT22;9205;52.032;4.314;2024-03-23T09:14:35;8.30;99.90
18160;DHT22;9205;52.032;4.314;2024-03-23T09:17:03;8.10;99.90
18160;DHT22;9205;52.032;4.314;2024-03-23T09:19:31;8.00;99.90
18160;DHT22;9205;52.032;4.314;2024-03-23T09:21:57;8.10;99.90
18160;DHT22;9205;52.032;4.314;2024-03-23T09:24:24;8.10;99.90
18160;DHT22;9205;52.032;4.314;2024-03-23T09:26:51;8.10;99.90
18160;DHT22;9205;52.032;4.314;2024-03-23T09:29:19;8.20;99.90
18160;DHT22;9205;52.032;4.314;2024-03-23T09:31:45;8.20;99.90
18160;DHT22;9205;52.032;4.314;2024-03-23T09:34:13;8.20;99.90
18160;DHT22;9205;52.032;4.314;2024-03-23T09:36:41;8.20;99.90
18160;DHT22;9205;52.032;4.314;2024-03-23T09:39:13;8.10;99.90
18160;DHT22;9205;52.032;4.314;2024-03-23T09:42:51;8.10;99.90
18160;DHT22;9205;52.032;4.314;2024-03-23T09:45:27;8.40;99.90
18160;DHT22;9205;52.032;4.314;2024-03-23T09:47:55;8.50;99.90
18160;DHT22;9205;52.032;4.314;2024-03-23T09:50:24;8.30;99.90
18160;DHT22;9205;52.032;4.314;2024-03-23T09:52:50;8.20;99.90
18160;DHT22;9205;52.032;4.314;2024-03-23T09:55:17;8.20;99.90
18160;DHT22;9205;52.032;4.314;2024-03-23T09:57:44;8.20;99.90
18160;DHT22;9205;52.032;4.314;2024-03-23T10:00:12;8.20;99.90
18160;DHT22;9205;52.032;4.314;2024-03-23T10:02:39;8.20;99.90
18160;DHT22;9205;52.032;4.314;2024-03-23T10:05:20;8.20;99.90
18160;DHT22;9205;52.032;4.314;2024-03-23T10:07:49;8.20;99.90
18160;DHT22;9205;52.032;4.314;2024-03-23T10:10:16;8.30;99.90
18160;DHT22;9205;52.032;4.314;2024-03-23T10:12:46;8.40;99.90
18160;DHT22;9205;52.032;4.314;2024-03-23T10:15:19;8.50;99.90
18160;DHT22;9205;52.032;4.314;2024-03-23T10:17:47;8.50;99.90
18160;DHT22;9205;52.032;4.314;2024-03-23T10:20:19;8.60;99.90
18160;DHT22;9205;52.032;4.314;2024-03-23T10:22:46;8.70;99.90
18160;DHT22;9205;52.032;4.314;2024-03-23T10:25:18;8.90;91.20
18160;DHT22;9205;52.032;4.314;2024-03-23T10:27:58;8.90;34.70
18160;DHT22;9205;52.032;4.314;2024-03-23T10:30:27;8.70;1.00
18160;DHT22;9205;52.032;4.314;2024-03-23T10:33:06;8.50;1.00
18160;DHT22;9205;52.032;4.314;2024-03-23T10:35:36;8.50;1.00
18160;DHT22;9205;52.032;4.314;2024-03-23T10:38:05;8.40;1.00
18160;DHT22;9205;52.032;4.314;2024-03-23T10:40:36;8.30;1.00
18160;DHT22;9205;52.032;4.314;2024-03-23T10:43:03;8.30;1.00
18160;DHT22;9205;52.032;4.314;2024-03-23T10:45:31;8.50;1.00
18160;DHT22;9205;52.032;4.314;2024-03-23T10:47:57;8.40;1.00
18160;DHT22;9205;52.032;4.314;2024-03-23T10:50:25;8.30;1.00
18160;DHT22;9205;52.032;4.314;2024-03-23T10:52:53;8.50;1.00
18160;DHT22;9205;52.032;4.314;2024-03-23T10:55:24;8.80;1.00
18160;DHT22;9205;52.032;4.314;2024-03-23T10:57:54;9.00;1.00
18160;DHT22;9205;52.032;4.314;2024-03-23T11:00:26;9.20;1.00
18160;DHT22;9205;52.032;4.314;2024-03-23T11:02:52;9.40;1.00
18160;DHT22;9205;52.032;4.314;2024-03-23T11:05:29;9.30;1.00
18160;DHT22;9205;52.032;4.314;2024-03-23T11:11:25;9.60;1.00
18160;DHT22;9205;52.032;4.314;2024-03-23T11:13:54;9.50;1.00
18160;DHT22;9205;52.032;4.314;2024-03-23T11:16:24;9.60;1.00
18160;DHT22;9205;52.032;4.314;2024-03-23T11:18:54;9.70;99.90
18160;DHT22;9205;52.032;4.314;2024-03-23T11:21:54;9.80;99.90
18160;DHT22;9205;52.032;4.314;2024-03-23T11:24:21;9.60;99.90
18160;DHT22;9205;52.032;4.314;2024-03-23T11:26:49;9.40;99.90
18160;DHT22;9205;52.032;4.314;2024-03-23T11:29:17;9.60;99.90
18160;DHT22;9205;52.032;4.314;2024-03-23T11:31:48;9.50;99.90
18160;DHT22;9205;52.032;4.314;2024-03-23T11:34:15;9.60;99.90
18160;DHT22;9205;52.032;4.314;2024-03-23T11:36:43;10.10;99.90
18160;DHT22;9205;52.032;4.314;2024-03-23T11:39:13;9.60;99.90
18160;DHT22;9205;52.032;4.314;2024-03-23T11:41:48;9.20;1.00
18160;DHT22;9205;52.032;4.314;2024-03-23T11:44:17;9.20;33.70
18160;DHT22;9205;52.032;4.314;2024-03-23T11:46:45;9.50;99.90
18160;DHT22;9205;52.032;4.314;2024-03-23T11:49:22;9.80;96.60
18160;DHT22;9205;52.032;4.314;2024-03-23T11:51:52;9.90;8.10
18160;DHT22;9205;52.032;4.314;2024-03-23T11:54:20;10.00;1.00
18160;DHT22;9205;52.032;4.314;2024-03-23T11:56:55;9.90;1.00
18160;DHT22;9205;52.032;4.314;2024-03-23T11:59:37;9.90;1.00
18160;DHT22;9205;52.032;4.314;2024-03-23T12:02:08;9.80;1.00
18160;DHT22;9205;52.032;4.314;2024-03-23T12:04:36;9.80;1.00
18160;DHT22;9205;52.032;4.314;2024-03-23T12:07:11;9.70;1.00
18160;DHT22;9205;52.032;4.314;2024-03-23T12:09:38;9.30;1.00
18160;DHT22;9205;52.032;4.314;2024-03-23T12:12:10;8.70;1.00
18160;DHT22;9205;52.032;4.314;2024-03-23T12:14:42;8.10;99.90
18160;DHT22;9205;52.032;4.314;2024-03-23T12:17:13;7.90;99.90
18160;DHT22;9205;52.032;4.314;2024-03-23T12:19:41;7.70;1.00
18160;DHT22;9205;52.032;4.314;2024-03-23T12:22:10;7.60;1.00
18160;DHT22;9205;52.032;4.314;2024-03-23T12:24:36;7.70;1.00
18160;DHT22;9205;52.032;4.314;2024-03-23T12:27:10;7.80;99.90
18160;DHT22;9205;52.032;4.314;2024-03-23T12:29:36;7.90;99.90
18160;DHT22;9205;52.032;4.314;2024-03-23T12:32:07;8.20;1.00
18160;DHT22;9205;52.032;4.314;2024-03-23T12:34:33;8.30;1.00
18160;DHT22;9205;52.032;4.314;2024-03-23T12:37:01;8.40;1.00
18160;DHT22;9205;52.032;4.314;2024-03-23T12:39:27;8.20;1.00
18160;DHT22;9205;52.032;4.314;2024-03-23T12:41:54;8.10;1.00
18160;DHT22;9205;52.032;4.314;2024-03-23T12:44:21;7.90;1.00
18160;DHT22;9205;52.032;4.314;2024-03-23T12:46:49;7.50;1.00
18160;DHT22;9205;52.032;4.314;2024-03-23T12:49:16;7.30;1.00
18160;DHT22;9205;52.032;4.314;2024-03-23T12:51:52;7.60;3.80
18160;DHT22;9205;52.032;4.314;2024-03-23T12:54:20;8.00;99.90
18160;DHT22;9205;52.032;4.314;2024-03-23T12:56:47;8.40;99.90
18160;DHT22;9205;52.032;4.314;2024-03-23T12:59:13;8.40;99.90
18160;DHT22;9205;52.032;4.314;2024-03-23T13:01:42;8.30;99.90
18160;DHT22;9205;52.032;4.314;2024-03-23T13:04:09;8.40;72.30
18160;DHT22;9205;52.032;4.314;2024-03-23T13:06:38;8.60;1.00
18160;DHT22;9205;52.032;4.314;2024-03-23T13:09:04;8.90;1.00
18160;DHT22;9205;52.032;4.314;2024-03-23T13:11:32;9.00;1.00
18160;DHT22;9205;52.032;4.314;2024-03-23T13:13:58;9.00;1.00
18160;DHT22;9205;52.032;4.314;2024-03-23T13:16:25;9.30;1.00
18160;DHT22;9205;52.032;4.314;2024-03-23T13:18:51;9.40;1.00
18160;DHT22;9205;52.032;4.314;2024-03-23T13:21:18;9.70;99.90
18160;DHT22;9205;52.032;4.314;2024-03-23T13:23:48;9.60;99.90
18160;DHT22;9205;52.032;4.314;2024-03-23T13:26:16;9.20;1.00
18160;DHT22;9205;52.032;4.314;2024-03-23T13:28:42;9.40;1.00
18160;DHT22;9205;52.032;4.314;2024-03-23T13:31:13;9.30;1.00
18160;DHT22;9205;52.032;4.314;2024-03-23T13:33:39;9.30;1.00
18160;DHT22;9205;52.032;4.314;2024-03-23T13:36:08;9.10;1.00
18160;DHT22;9205;52.032;4.314;2024-03-23T13:38:34;8.70;1.00
18160;DHT22;9205;52.032;4.314;2024-03-23T13:41:03;8.40;1.00
18160;DHT22;9205;52.032;4.314;2024-03-23T13:43:32;8.20;1.00
18160;DHT22;9205;52.032;4.314;2024-03-23T13:45:59;8.00;1.00
18160;DHT22;9205;52.032;4.314;2024-03-23T13:48:27;8.10;99.90
18160;DHT22;9205;52.032;4.314;2024-03-23T13:50:58;8.30;99.90
18160;DHT22;9205;52.032;4.314;2024-03-23T13:53:24;8.70;1.00
18160;DHT22;9205;52.032;4.314;2024-03-23T13:55:52;8.80;1.00
18160;DHT22;9205;52.032;4.314;2024-03-23T13:58:20;8.80;1.00
18160;DHT22;9205;52.032;4.314;2024-03-23T14:00:49;8.70;99.90
18160;DHT22;9205;52.032;4.314;2024-03-23T14:03:15;8.50;99.90
18160;DHT22;9205;52.032;4.314;2024-03-23T14:05:42;8.40;99.90
18160;DHT22;9205;52.032;4.314;2024-03-23T14:08:09;8.50;99.90
18160;DHT22;9205;52.032;4.314;2024-03-23T14:10:41;8.50;99.90
18160;DHT22;9205;52.032;4.314;2024-03-23T14:13:07;8.50;99.90
18160;DHT22;9205;52.032;4.314;2024-03-23T14:15:36;8.60;99.90
18160;DHT22;9205;52.032;4.314;2024-03-23T14:18:03;8.90;1.00
18160;DHT22;9205;52.032;4.314;2024-03-23T14:20:30;9.30;1.00
18160;DHT22;9205;52.032;4.314;2024-03-23T14:22:57;9.40;99.90
18160;DHT22;9205;52.032;4.314;2024-03-23T14:25:23;9.60;99.90
18160;DHT22;9205;52.032;4.314;2024-03-23T14:27:54;9.70;99.90
18160;DHT22;9205;52.032;4.314;2024-03-23T14:30:20;9.70;59.20
18160;DHT22;9205;52.032;4.314;2024-03-23T14:32:49;9.70;1.00
18160;DHT22;9205;52.032;4.314;2024-03-23T14:35:15;9.80;1.00
18160;DHT22;9205;52.032;4.314;2024-03-23T14:37:42;9.70;1.00
18160;DHT22;9205;52.032;4.314;2024-03-23T14:40:09;9.60;1.00
18160;DHT22;9205;52.032;4.314;2024-03-23T14:42:38;9.40;1.00
18160;DHT22;9205;52.032;4.314;2024-03-23T14:45:05;9.70;1.00
18160;DHT22;9205;52.032;4.314;2024-03-23T14:47:32;9.50;99.90
18160;DHT22;9205;52.032;4.314;2024-03-23T14:50:00;9.50;99.90
18160;DHT22;9205;52.032;4.314;2024-03-23T14:52:34;9.40;99.90
18160;DHT22;9205;52.032;4.314;2024-03-23T14:55:00;9.30;99.90
18160;DHT22;9205;52.032;4.314;2024-03-23T14:57:28;9.40;99.90
18160;DHT22;9205;52.032;4.314;2024-03-23T14:59:55;9.50;99.90
18160;DHT22;9205;52.032;4.314;2024-03-23T15:02:23;9.40;99.90
18160;DHT22;9205;52.032;4.314;2024-03-23T15:04:49;9.50;99.90
18160;DHT22;9205;52.032;4.314;2024-03-23T15:07:18;9.70;99.90
18160;DHT22;9205;52.032;4.314;2024-03-23T15:09:45;9.60;99.90
18160;DHT22;9205;52.032;4.314;2024-03-23T15:12:12;9.60;99.90
18160;DHT22;9205;52.032;4.314;2024-03-23T15:14:38;9.60;99.90
18160;DHT22;9205;52.032;4.314;2024-03-23T15:17:05;9.60;99.90
18160;DHT22;9205;52.032;4.314;2024-03-23T15:19:33;9.40;99.90
18160;DHT22;9205;52.032;4.314;2024-03-23T15:22:00;9.20;99.90
18160;DHT22;9205;52.032;4.314;2024-03-23T15:24:27;9.10;99.90
18160;DHT22;9205;52.032;4.314;2024-03-23T15:26:55;9.20;99.90
18160;DHT22;9205;52.032;4.314;2024-03-23T15:29:21;9.10;1.00
18160;DHT22;9205;52.032;4.314;2024-03-23T15:31:49;9.20;1.00
18160;DHT22;9205;52.032;4.314;2024-03-23T15:34:18;9.00;1.00
18160;DHT22;9205;52.032;4.314;2024-03-23T15:36:47;9.00;1.00
18160;DHT22;9205;52.032;4.314;2024-03-23T15:39:14;9.00;1.00
18160;DHT22;9205;52.032;4.314;2024-03-23T15:41:44;9.00;1.00
18160;DHT22;9205;52.032;4.314;2024-03-23T15:44:10;9.10;1.00
18160;DHT22;9205;52.032;4.314;2024-03-23T15:46:38;9.00;1.00
18160;DHT22;9205;52.032;4.314;2024-03-23T15:49:04;9.10;1.00
18160;DHT22;9205;52.032;4.314;2024-03-23T15:51:32;9.10;1.00
18160;DHT22;9205;52.032;4.314;2024-03-23T15:54:00;9.20;1.00
18160;DHT22;9205;52.032;4.314;2024-03-23T15:56:29;9.20;1.00
18160;DHT22;9205;52.032;4.314;2024-03-23T15:58:56;9.10;99.90
18160;DHT22;9205;52.032;4.314;2024-03-23T16:01:30;9.20;99.90
18160;DHT22;9205;52.032;4.314;2024-03-23T16:03:59;9.10;99.90
18160;DHT22;9205;52.032;4.314;2024-03-23T16:06:26;9.10;99.90
18160;DHT22;9205;52.032;4.314;2024-03-23T16:08:52;9.00;77.20
18160;DHT22;9205;52.032;4.314;2024-03-23T16:11:20;8.90;13.20
18160;DHT22;9205;52.032;4.314;2024-03-23T16:13:46;9.00;39.40
18160;DHT22;9205;52.032;4.314;2024-03-23T16:16:14;9.00;99.90
18160;DHT22;9205;52.032;4.314;2024-03-23T16:18:41;9.00;99.90
18160;DHT22;9205;52.032;4.314;2024-03-23T16:21:11;9.10;99.90
18160;DHT22;9205;52.032;4.314;2024-03-23T16:23:37;9.10;99.90
18160;DHT22;9205;52.032;4.314;2024-03-23T16:26:04;9.00;99.90
18160;DHT22;9205;52.032;4.314;2024-03-23T16:28:31;8.80;99.90
18160;DHT22;9205;52.032;4.314;2024-03-23T16:31:01;8.70;99.90
18160;DHT22;9205;52.032;4.314;2024-03-23T16:33:30;8.50;1.00
18160;DHT22;9205;52.032;4.314;2024-03-23T16:35:58;8.40;1.00
18160;DHT22;9205;52.032;4.314;2024-03-23T16:38:26;8.10;1.00
18160;DHT22;9205;52.032;4.314;2024-03-23T16:40:57;8.00;1.00
18160;DHT22;9205;52.032;4.314;2024-03-23T16:43:26;7.90;1.00
18160;DHT22;9205;52.032;4.314;2024-03-23T16:45:58;7.90;1.00
18160;DHT22;9205;52.032;4.314;2024-03-23T16:48:26;8.00;1.00
18160;DHT22;9205;52.032;4.314;2024-03-23T16:50:58;8.00;1.00
18160;DHT22;9205;52.032;4.314;2024-03-23T16:53:25;8.20;1.00
18160;DHT22;9205;52.032;4.314;2024-03-23T16:55:56;8.40;41.70
18160;DHT22;9205;52.032;4.314;2024-03-23T16:58:23;8.60;99.90
18160;DHT22;9205;52.032;4.314;2024-03-23T17:00:51;8.60;99.90
18160;DHT22;9205;52.032;4.314;2024-03-23T17:03:18;8.60;1.00
18160;DHT22;9205;52.032;4.314;2024-03-23T17:05:46;8.50;1.00
18160;DHT22;9205;52.032;4.314;2024-03-23T17:08:14;8.40;1.00
18160;DHT22;9205;52.032;4.314;2024-03-23T17:10:41;8.30;1.00
18160;DHT22;9205;52.032;4.314;2024-03-23T17:13:07;8.30;1.00